Latest Weather Observations for Mandurah

IDW60801

Issued at 6:03 am WST Saturday 16 February 2019 (issued every 10 minutes, with the page automatically refreshed every 10 minutes)

About weather observations | Map of weather stations | Latest weather observations for WA | Other Formats
Station Details ID: 009977 Name: MANDURAH Lat: -32.52 Lon: 115.71 Height: 3.0 m
Data from the previous 72 hours. | See also: Recent months at Mandurah
Date/Time
WST
Temp
°C
App
Temp
°C
Dew
Point
°C
Rel
Hum
%
Delta-T
°C
Wind Press
QNH
hPa
Press
MSL
hPa
Rain since
9am
mm
Dir  Spd
km/h
Gust
km/h
Spd
kts
Gust
kts
16/06:00am 18.4 17.4 15.6 84 1.6 SSE 15 26 8 14 1019.1 1019.1 0.0
16/05:30am 18.7 17.8 15.8 83 1.7 S 15 20 8 11 1018.6 1018.6 0.0
16/05:00am 18.9 17.6 15.8 82 1.8 S 17 28 9 15 1018.3 1018.3 0.0
16/04:30am 19.2 17.7 16.2 83 1.8 S 19 32 10 17 1018.0 1018.0 0.0
16/04:00am 19.5 17.9 16.5 83 1.8 S 20 30 11 16 1017.7 1017.7 0.0
16/03:30am 19.7 18.7 16.5 82 1.9 SSE 17 26 9 14 1017.5 1017.5 0.0
16/03:00am 20.1 18.6 16.3 79 2.3 SSE 19 28 10 15 1017.5 1017.5 0.0
16/02:30am 20.6 19.1 16.4 77 2.5 SSE 19 30 10 16 1017.5 1017.5 0.0
16/02:00am 20.9 19.8 16.3 75 2.8 S 17 26 9 14 1017.7 1017.7 0.0
16/01:30am 21.1 20.1 16.5 75 2.8 SSE 17 26 9 14 1017.7 1017.7 0.0
16/01:00am 21.3 21.0 17.3 78 2.4 SSE 15 24 8 13 1017.9 1017.9 0.0
16/12:30am 21.1 20.6 17.7 81 2.1 SSE 17 26 9 14 1018.0 1018.0 0.0
16/12:00am 21.1 20.2 17.7 81 2.1 S 19 28 10 15 1018.1 1018.1 0.0
 
Date/Time
WST
Temp
°C
App
Temp
°C
Dew
Point
°C
Rel
Hum
%
Delta-T
°C
Wind Press
QNH
hPa
Press
MSL
hPa
Rain since
9am
mm
Dir  Spd
km/h
Gust
km/h
Spd
kts
Gust
kts
15/11:30pm 21.3 20.3 17.5 79 2.3 S 19 28 10 15 1018.0 1018.0 0.0
15/11:00pm 21.7 21.2 17.7 78 2.5 S 17 30 9 16 1018.1 1018.1 0.0
15/10:30pm 22.0 21.0 17.6 76 2.7 S 19 26 10 14 1018.1 1018.1 0.0
15/10:00pm 22.1 21.7 18.1 78 2.5 S 17 28 9 15 1018.3 1018.3 0.0
15/09:30pm 22.4 22.5 18.4 78 2.5 SSW 15 24 8 13 1018.4 1018.4 0.0
15/09:00pm 22.0 22.9 19.2 84 1.8 SSW 13 22 7 12 1018.2 1018.2 0.0
15/08:30pm 21.8 23.6 19.5 87 1.5 SSW 9 15 5 8 1017.9 1017.9 0.0
15/08:00pm 21.9 23.4 19.8 88 1.3 SSW 11 20 6 11 1017.6 1017.6 0.0
15/07:30pm 22.3 24.4 19.3 83 1.9 SW 7 11 4 6 1017.4 1017.4 0.0
15/07:00pm 22.7 23.6 18.3 76 2.8 SSW 11 19 6 10 1017.1 1017.1 0.0
15/06:30pm 22.9 23.8 19.3 80 2.3 SW 13 24 7 13 1016.9 1016.9 0.0
15/06:00pm 23.3 24.0 18.8 76 2.8 SW 13 24 7 13 1016.7 1016.7 0.0
15/05:30pm 23.2 23.0 19.4 79 2.4 SW 19 28 10 15 1016.6 1016.6 0.0
15/05:00pm 23.7 23.6 18.8 74 3.1 WSW 17 26 9 14 1016.5 1016.5 0.0
15/04:30pm 23.9 23.5 19.0 74 3.1 WSW 19 28 10 15 1016.4 1016.4 0.0
15/04:00pm 23.6 22.4 17.6 69 3.7 WSW 20 30 11 16 1016.4 1016.4 0.0
15/03:30pm 24.2 23.2 17.9 68 3.9 WSW 20 28 11 15 1016.1 1016.1 0.0
15/03:00pm 24.3 23.6 18.7 71 3.5 WSW 20 30 11 16 1016.1 1016.1 0.0
15/02:30pm 24.6 24.3 19.2 72 3.5 WSW 19 28 10 15 1016.2 1016.2 0.0
15/02:00pm 24.6 24.0 18.5 69 3.9 WSW 19 26 10 14 1016.4 1016.4 0.0
15/01:30pm 24.1 24.4 20.8 82 2.2 WSW 20 26 11 14 1016.5 1016.5 0.0
15/01:00pm 23.6 24.5 20.9 85 1.8 W 17 24 9 13 1016.4 1016.4 0.0
15/12:30pm 23.0 23.9 20.9 88 1.4 WNW 17 24 9 13 1016.5 1016.5 0.0
15/12:00pm 23.0 23.8 21.3 90 1.1 WNW 19 22 10 12 1016.7 1016.7 0.0
15/11:30am 22.2 23.0 21.4 95 0.5 WNW 19 22 10 12 1016.8 1016.8 0.0
15/11:00am 22.3 23.0 21.6 96 0.5 NW 20 22 11 12 1017.0 1017.0 0.0
15/10:30am 22.5 23.9 21.0 91 1.0 NW 15 19 8 10 1016.9 1016.9 0.0
15/10:00am 23.3 25.7 20.1 82 2.1 NW 7 9 4 5 1016.8 1016.8 0.0
15/09:30am 22.3 24.2 19.8 86 1.6 NNW 9 11 5 6 1016.7 1016.7 0.0
15/09:00am 21.6 23.7 20.1 91 1.0 N 9 11 5 6 1016.3 1016.3 0.0
15/08:30am 20.2 22.6 20.0 99 0.1 NNE 7 11 4 6 1016.2 1016.2 0.0
15/08:00am 19.1 21.1 19.1 100 0.0 NE 7 11 4 6 1016.2 1016.2 0.0
15/07:30am 18.4 20.2 18.4 100 0.0 ENE 6 7 3 4 1016.2 1016.2 0.0
15/07:00am 17.9 19.5 17.9 100 0.0 ENE 6 9 3 5 1016.0 1016.0 0.0
15/06:30am 17.5 18.8 17.5 100 0.0 ESE 7 13 4 7 1015.6 1015.6 0.0
15/06:00am 17.2 18.9 17.2 100 0.0 SSW 4 9 2 5 1015.3 1015.3 0.0
15/05:30am 17.2 18.3 17.2 100 0.0 SSW 7 9 4 5 1014.9 1014.9 0.0
15/05:00am 17.3 19.1 17.3 100 0.0 SSW 4 6 2 3 1014.6 1014.6 0.0
15/04:30am 17.8 20.5 17.8 100 0.0 CALM 0 0 0 0 1014.5 1014.5 0.0
15/04:00am 18.3 20.9 18.3 100 0.0 SSW 2 4 1 2 1014.1 1014.1 0.0
15/03:30am 18.5 21.5 18.5 100 0.0 CALM 0 0 0 0 1014.1 1014.1 0.0
15/03:00am 18.5 21.5 18.5 100 0.0 CALM 0 2 0 1 1013.9 1013.9 0.0
15/02:30am 18.8 22.0 18.8 100 0.0 CALM 0 4 0 2 1013.7 1013.7 0.0
15/02:00am 19.8 22.7 19.8 100 0.0 SSW 4 7 2 4 1013.9 1013.9 0.0
15/01:30am 19.7 23.3 19.7 100 0.0 CALM 0 0 0 0 1014.3 1014.3 0.0
15/01:00am 20.0 23.7 20.0 100 0.0 CALM 0 0 0 0 1014.4 1014.4 0.0
15/12:30am 20.2 23.6 20.2 100 0.0 SSW 2 4 1 2 1014.6 1014.6 0.0
15/12:00am 20.2 24.0 20.2 100 0.0 CALM 0 0 0 0 1014.8 1014.8 0.0
 
Date/Time
WST
Temp
°C
App
Temp
°C
Dew
Point
°C
Rel
Hum
%
Delta-T
°C
Wind Press
QNH
hPa
Press
MSL
hPa
Rain since
9am
mm
Dir  Spd
km/h
Gust
km/h
Spd
kts
Gust
kts
14/11:30pm 20.4 23.9 20.4 100 0.0 SSW 2 4 1 2 1014.9 1014.9 0.0
14/11:00pm 20.2 23.2 20.0 99 0.1 SSW 4 4 2 2 1014.8 1014.8 0.0
14/10:30pm 20.2 23.0 19.7 97 0.3 SSW 4 6 2 3 1014.6 1014.6 0.0
14/10:00pm 20.2 23.5 19.0 93 0.8 CALM 0 0 0 0 1014.5 1014.5 0.0
14/09:30pm 20.6 23.3 18.7 89 1.2 SSW 2 4 1 2 1014.5 1014.5 0.0
14/09:00pm 21.2 23.7 19.1 88 1.3 SSW 4 6 2 3 1014.3 1014.3 0.0
14/08:30pm 21.2 23.3 19.3 89 1.2 SW 7 11 4 6 1014.1 1014.1 0.0
14/08:00pm 21.4 23.1 18.4 83 1.9 SSW 7 9 4 5 1013.4 1013.4 0.0
14/07:30pm 21.5 23.8 19.8 90 1.1 SW 7 11 4 6 1013.1 1013.1 0.0
14/07:00pm 21.8 22.8 19.5 87 1.5 SW 13 20 7 11 1012.9 1012.9 0.0
14/06:30pm 22.7 23.6 19.3 81 2.2 WSW 13 19 7 10 1012.9 1012.9 0.0
14/06:00pm 23.1 22.7 18.0 73 3.2 WSW 17 24 9 13 1012.8 1012.8 0.0
14/05:30pm 23.4 22.3 17.2 68 3.8 SW 19 26 10 14 1012.6 1012.6 0.0
14/05:00pm 24.0 23.5 17.7 68 3.9 WSW 17 24 9 13 1012.5 1012.5 0.0
14/04:30pm 24.3 23.8 17.8 67 4.1 WSW 17 24 9 13 1012.4 1012.4 0.0
14/04:00pm 24.6 23.6 17.6 65 4.4 WSW 19 28 10 15 1012.3 1012.3 0.0
14/03:30pm 24.2 23.0 17.4 65 4.2 SW 20 28 11 15 1012.2 1012.2 0.0
14/03:00pm 24.3 22.8 17.8 67 4.1 WSW 22 32 12 17 1012.3 1012.3 0.0
14/02:30pm 24.9 23.7 17.4 63 4.7 SW 20 28 11 15 1012.2 1012.2 0.0
14/02:00pm 24.7 22.9 16.9 62 4.8 WSW 22 30 12 16 1012.6 1012.6 0.0
14/01:30pm 25.2 24.1 17.4 62 4.9 SW 19 28 10 15 1012.7 1012.7 0.0
14/01:00pm 25.1 23.9 17.1 61 5.0 WSW 19 24 10 13 1013.0 1013.0 0.0
14/12:30pm 24.7 23.4 16.9 62 4.8 WSW 19 26 10 14 1013.2 1013.2 0.0
14/12:00pm 25.4 25.2 16.8 59 5.3 WSW 13 20 7 11 1013.4 1013.4 0.0
14/11:30am 25.3 25.1 16.7 59 5.3 WSW 13 17 7 9 1013.7 1013.7 0.0
14/11:00am 24.6 25.2 17.8 66 4.3 WSW 11 20 6 11 1013.8 1013.8 0.0
14/10:30am 23.9 25.6 19.4 76 2.9 NW 9 11 5 6 1014.0 1014.0 0.0
14/10:00am 23.0 24.2 18.3 75 2.9 NW 9 15 5 8 1014.1 1014.1 0.0
14/09:30am 22.5 24.1 18.3 77 2.6 NW 7 11 4 6 1014.1 1014.1 0.0
14/09:00am 21.8 23.7 18.6 82 2.0 NW 6 9 3 5 1014.2 1014.2 0.0
14/08:30am 21.2 23.4 18.4 84 1.7 SSW 4 4 2 2 1014.2 1014.2 0.0
14/08:00am 20.4 23.2 18.0 86 1.5 CALM 0 4 0 2 1014.0 1014.0 0.0
14/07:30am 19.4 21.4 17.9 91 0.9 SSW 4 6 2 3 1013.8 1013.8 0.0
14/07:00am 18.9 21.4 18.2 96 0.4 SSW 2 4 1 2 1013.5 1013.5 0.0
14/06:30am 19.1 21.6 19.1 100 0.0 SSW 4 4 2 2 1013.0 1013.0 0.0
14/06:00am 18.6 21.5 18.1 97 0.3 CALM 0 2 0 1 1012.8 1012.8 0.0
14/05:30am 18.1 20.5 17.0 93 0.7 CALM 0 0 0 0 1012.4 1012.4 0.0
14/05:00am 18.8 20.9 18.0 95 0.5 SSW 4 6 2 3 1011.7 1011.7 0.0
14/04:30am 18.9 20.5 17.0 89 1.1 SSW 4 6 2 3 1011.5 1011.5 0.0
14/04:00am 18.4 19.5 16.6 89 1.1 SSW 6 7 3 4 1011.3 1011.3 0.0
14/03:30am 18.4 19.8 16.4 88 1.2 SSW 4 6 2 3 1011.5 1011.5 0.0
14/03:00am 19.1 20.2 16.5 85 1.6 SSE 6 9 3 5 1011.3 1011.3 0.0
14/02:30am 19.4 20.5 17.2 87 1.3 S 7 11 4 6 1011.4 1011.4 0.0
14/02:00am 19.4 20.8 17.9 91 0.9 S 7 13 4 7 1011.5 1011.5 0.0
14/01:30am 19.6 20.7 17.0 85 1.6 SSE 7 9 4 5 1011.7 1011.7 0.0
14/01:00am 19.6 20.6 16.8 84 1.7 S 7 11 4 6 1011.9 1011.9 0.0
14/12:30am 19.9 21.0 16.7 82 1.9 SSE 6 9 3 5 1012.2 1012.2 0.0
14/12:00am 20.0 21.1 16.6 81 2.1 S 6 7 3 4 1012.4 1012.4 0.0
 
Date/Time
WST
Temp
°C
App
Temp
°C
Dew
Point
°C
Rel
Hum
%
Delta-T
°C
Wind Press
QNH
hPa
Press
MSL
hPa
Rain since
9am
mm
Dir  Spd
km/h
Gust
km/h
Spd
kts
Gust
kts
13/11:30pm 20.3 21.4 16.7 80 2.2 SE 6 9 3 5 1012.5 1012.5 0.0
13/11:00pm 20.5 21.4 16.7 79 2.3 SSE 7 11 4 6 1012.8 1012.8 0.0
13/10:30pm 20.7 21.6 16.5 77 2.5 S 7 11 4 6 1013.4 1013.4 0.0
13/10:00pm 20.9 22.0 16.5 76 2.7 S 6 9 3 5 1014.0 1014.0 0.0
13/09:30pm 21.0 21.2 15.8 72 3.1 S 9 15 5 8 1014.2 1014.2 0.0
13/09:00pm 21.1 21.4 15.0 68 3.6 SW 7 11 4 6 1014.8 1014.8 0.0
13/08:30pm 21.4 22.3 14.1 63 4.2 SSW 2 4 1 2 1014.7 1014.7 0.0
13/08:00pm 21.9 22.0 13.8 60 4.7 SSE 6 7 3 4 1014.5 1014.5 0.0
13/07:30pm 22.0 21.9 13.9 60 4.7 SSW 7 9 4 5 1014.6 1014.6 0.0
13/07:00pm 22.3 21.5 12.8 55 5.4 S 9 17 5 9 1014.1 1014.1 0.0
13/06:30pm 22.4 22.0 12.9 55 5.4 S 7 13 4 7 1014.6 1014.6 0.0
13/06:00pm 22.1 22.6 15.5 66 3.9 WSW 7 13 4 7 1014.8 1014.8 0.0
13/05:30pm 22.4 21.8 15.7 66 4.0 WSW 13 19 7 10 1014.9 1014.9 0.0
13/05:00pm 22.9 22.7 14.7 60 4.8 SW 9 15 5 8 1014.6 1014.6 0.0
13/04:30pm 23.7 22.6 13.0 51 6.2 WSW 11 15 6 8 1014.8 1014.8 0.0
13/04:00pm 24.3 23.8 13.8 52 6.2 WSW 9 15 5 8 1014.8 1014.8 0.0
13/03:30pm 23.4 23.3 14.9 59 5.1 SW 9 13 5 7 1014.9 1014.9 0.0
13/03:00pm 22.4 20.6 15.5 65 4.1 WSW 19 28 10 15 1015.2 1015.2 0.0
13/02:30pm 22.5 20.3 14.9 62 4.5 WSW 20 30 11 16 1015.4 1015.4 0.0
13/02:00pm 23.7 21.0 14.7 57 5.3 WSW 22 30 12 16 1015.9 1015.9 0.0
13/01:30pm 24.9 22.6 15.8 57 5.5 WSW 22 30 12 16 1016.1 1016.1 0.0
13/01:00pm 24.2 22.2 14.9 56 5.5 WSW 19 26 10 14 1016.2 1016.2 0.0
13/12:30pm 24.1 22.1 13.9 53 6.0 W 17 20 9 11 1015.8 1015.8 0.0
13/12:00pm 24.7 22.7 12.6 47 7.0 W 15 20 8 11 1015.7 1015.7 0.0
13/11:30am 25.4 25.1 13.3 47 7.1 WNW 7 13 4 7 1015.6 1015.6 0.0
13/11:00am 26.1 25.5 11.8 41 8.2 N 6 9 3 5 1015.9 1015.9 0.0
13/10:30am 26.8 25.6 9.6 34 9.5 E 6 11 3 6 1016.0 1016.0 0.0
13/10:00am 25.0 23.1 10.5 40 8.1 ENE 11 19 6 10 1016.1 1016.1 0.0
13/09:30am 23.5 21.5 10.2 43 7.3 ENE 11 17 6 9 1016.4 1016.4 0.0
13/09:00am 23.1 20.8 9.1 41 7.5 ENE 11 17 6 9 1016.4 1016.4 0.0
13/08:30am 21.6 19.0 9.5 46 6.5 ENE 13 20 7 11 1016.4 1016.4 0.0
13/08:00am 19.6 17.9 9.8 53 5.2 E 9 17 5 9 1016.3 1016.3 0.0
13/07:30am 17.8 16.1 9.7 59 4.3 E 9 17 5 9 1016.3 1016.3 0.0
13/07:00am 17.4 15.6 9.3 59 4.2 E 9 17 5 9 1016.1 1016.1 0.0
13/06:30am 17.3 15.4 9.2 59 4.2 E 9 19 5 10 1015.8 1015.8 0.0

Other Formats:

Comma delimited format used in spreadsheet applications
http://www.bom.gov.au/fwo/IDW60801/IDW60801.94605.axf

JavaScript Object Notation format (JSON) in row-major order
http://www.bom.gov.au/fwo/IDW60801/IDW60801.94605.json